sensor_id;sensor_type;location;lat;lon;timestamp;pressure;altitude;pressure_sealevel;temperature;humidity
61292;BME280;47165;42.664;23.368;2023-07-02T00:20:54;94375.25;;;19.81;74.92
61292;BME280;47165;42.664;23.368;2023-07-02T00:23:19;94375.22;;;19.73;75.72
61292;BME280;47165;42.664;23.368;2023-07-02T00:27:46;94366.22;;;19.92;74.91
61292;BME280;47165;42.664;23.368;2023-07-02T00:30:12;94374.91;;;19.76;75.05
61292;BME280;47165;42.664;23.368;2023-07-02T00:32:37;94373.13;;;19.84;74.99
61292;BME280;47165;42.664;23.368;2023-07-02T00:35:03;94384.91;;;19.90;74.49
61292;BME280;47165;42.664;23.368;2023-07-02T00:37:29;94385.63;;;20.00;74.04
61292;BME280;47165;42.664;23.368;2023-07-02T00:39:54;94383.81;;;20.09;73.98
61292;BME280;47165;42.664;23.368;2023-07-02T00:42:20;94397.56;;;20.04;73.92
61292;BME280;47165;42.664;23.368;2023-07-02T00:44:45;94402.41;;;20.17;73.57
61292;BME280;47165;42.664;23.368;2023-07-02T00:47:11;94404.75;;;20.20;73.10
61292;BME280;47165;42.664;23.368;2023-07-02T00:49:39;94400.78;;;20.24;72.47
61292;BME280;47165;42.664;23.368;2023-07-02T00:52:05;94395.81;;;20.29;72.25
61292;BME280;47165;42.664;23.368;2023-07-02T00:54:31;94399.94;;;20.24;72.59
61292;BME280;47165;42.664;23.368;2023-07-02T00:56:57;94402.69;;;19.98;73.96
61292;BME280;47165;42.664;23.368;2023-07-02T00:59:29;94394.66;;;20.40;72.10
61292;BME280;47165;42.664;23.368;2023-07-02T01:01:55;94394.38;;;20.52;71.96
61292;BME280;47165;42.664;23.368;2023-07-02T01:04:22;94397.16;;;20.42;71.51
61292;BME280;47165;42.664;23.368;2023-07-02T01:06:53;94400.09;;;20.22;72.88
61292;BME280;47165;42.664;23.368;2023-07-02T01:09:23;94389.88;;;20.44;71.80
61292;BME280;47165;42.664;23.368;2023-07-02T01:12:00;94393.53;;;20.43;72.62
61292;BME280;47165;42.664;23.368;2023-07-02T01:14:32;94397.16;;;20.34;72.62
61292;BME280;47165;42.664;23.368;2023-07-02T01:16:59;94404.88;;;20.61;71.36
61292;BME280;47165;42.664;23.368;2023-07-02T01:19:49;94403.91;;;21.03;69.96
61292;BME280;47165;42.664;23.368;2023-07-02T01:22:20;94409.84;;;21.38;68.29
61292;BME280;47165;42.664;23.368;2023-07-02T01:24:47;94393.59;;;21.58;67.54
61292;BME280;47165;42.664;23.368;2023-07-02T01:27:13;94402.16;;;21.84;67.32
61292;BME280;47165;42.664;23.368;2023-07-02T01:29:40;94403.69;;;21.70;67.23
61292;BME280;47165;42.664;23.368;2023-07-02T01:32:06;94386.44;;;21.58;67.47
61292;BME280;47165;42.664;23.368;2023-07-02T01:34:32;94411.78;;;21.77;66.80
61292;BME280;47165;42.664;23.368;2023-07-02T01:36:57;94388.50;;;21.87;66.85
61292;BME280;47165;42.664;23.368;2023-07-02T01:39:23;94368.19;;;22.03;66.03
61292;BME280;47165;42.664;23.368;2023-07-02T01:42:06;94370.66;;;22.04;65.91
61292;BME280;47165;42.664;23.368;2023-07-02T01:44:31;94368.44;;;22.16;65.46
61292;BME280;47165;42.664;23.368;2023-07-02T01:46:57;94367.13;;;22.12;65.16
61292;BME280;47165;42.664;23.368;2023-07-02T01:49:24;94360.16;;;22.11;64.80
61292;BME280;47165;42.664;23.368;2023-07-02T01:51:54;94361.75;;;22.20;64.52
61292;BME280;47165;42.664;23.368;2023-07-02T01:54:21;94378.75;;;22.19;64.87
61292;BME280;47165;42.664;23.368;2023-07-02T01:56:46;94374.25;;;22.20;65.35
61292;BME280;47165;42.664;23.368;2023-07-02T01:59:12;94340.13;;;22.32;64.98
61292;BME280;47165;42.664;23.368;2023-07-02T02:01:38;94357.84;;;22.39;64.86
61292;BME280;47165;42.664;23.368;2023-07-02T02:04:09;94349.75;;;22.33;64.60
61292;BME280;47165;42.664;23.368;2023-07-02T02:06:36;94328.19;;;22.27;65.28
61292;BME280;47165;42.664;23.368;2023-07-02T02:09:02;94333.34;;;22.21;64.93
61292;BME280;47165;42.664;23.368;2023-07-02T02:11:29;94354.16;;;22.17;66.32
61292;BME280;47165;42.664;23.368;2023-07-02T02:13:55;94355.53;;;22.05;66.74
61292;BME280;47165;42.664;23.368;2023-07-02T02:16:20;94349.88;;;22.08;67.48
61292;BME280;47165;42.664;23.368;2023-07-02T02:18:46;94364.94;;;21.84;66.34
61292;BME280;47165;42.664;23.368;2023-07-02T02:21:12;94348.41;;;21.66;66.78
61292;BME280;47165;42.664;23.368;2023-07-02T02:23:37;94346.06;;;21.63;67.16
61292;BME280;47165;42.664;23.368;2023-07-02T02:26:02;94356.00;;;21.69;68.12
61292;BME280;47165;42.664;23.368;2023-07-02T02:28:28;94348.84;;;21.69;67.57
61292;BME280;47165;42.664;23.368;2023-07-02T02:30:53;94342.69;;;21.77;68.02
61292;BME280;47165;42.664;23.368;2023-07-02T02:33:19;94344.66;;;21.83;66.98
61292;BME280;47165;42.664;23.368;2023-07-02T02:35:45;94357.44;;;21.88;67.37
61292;BME280;47165;42.664;23.368;2023-07-02T02:38:11;94348.81;;;21.78;67.67
61292;BME280;47165;42.664;23.368;2023-07-02T02:40:37;94348.03;;;21.69;68.08
61292;BME280;47165;42.664;23.368;2023-07-02T02:43:02;94343.88;;;21.75;68.29
61292;BME280;47165;42.664;23.368;2023-07-02T02:45:28;94340.47;;;21.49;68.04
61292;BME280;47165;42.664;23.368;2023-07-02T02:47:54;94348.09;;;21.44;68.44
61292;BME280;47165;42.664;23.368;2023-07-02T02:50:19;94327.53;;;21.46;69.25
61292;BME280;47165;42.664;23.368;2023-07-02T02:52:45;94338.00;;;21.32;68.52
61292;BME280;47165;42.664;23.368;2023-07-02T02:55:12;94339.19;;;21.13;70.03
61292;BME280;47165;42.664;23.368;2023-07-02T02:57:37;94341.00;;;21.12;69.80
61292;BME280;47165;42.664;23.368;2023-07-02T03:00:03;94362.06;;;21.22;70.44
61292;BME280;47165;42.664;23.368;2023-07-02T03:02:30;94353.25;;;21.29;69.70
61292;BME280;47165;42.664;23.368;2023-07-02T03:04:55;94348.75;;;21.38;69.55
61292;BME280;47165;42.664;23.368;2023-07-02T03:07:22;94355.25;;;21.27;69.06
61292;BME280;47165;42.664;23.368;2023-07-02T03:09:47;94343.13;;;21.33;68.86
61292;BME280;47165;42.664;23.368;2023-07-02T03:12:13;94340.13;;;21.36;68.67
61292;BME280;47165;42.664;23.368;2023-07-02T03:14:38;94341.97;;;21.44;69.09
61292;BME280;47165;42.664;23.368;2023-07-02T03:17:04;94348.44;;;21.49;69.24
61292;BME280;47165;42.664;23.368;2023-07-02T03:19:29;94347.38;;;21.67;68.64
61292;BME280;47165;42.664;23.368;2023-07-02T03:21:55;94334.06;;;21.75;68.69
61292;BME280;47165;42.664;23.368;2023-07-02T03:24:20;94326.25;;;21.74;67.46
61292;BME280;47165;42.664;23.368;2023-07-02T03:26:46;94343.44;;;21.55;69.39
61292;BME280;47165;42.664;23.368;2023-07-02T03:29:11;94356.41;;;21.49;69.87
61292;BME280;47165;42.664;23.368;2023-07-02T03:31:37;94357.88;;;21.52;69.36
61292;BME280;47165;42.664;23.368;2023-07-02T03:34:08;94363.22;;;21.52;68.42
61292;BME280;47165;42.664;23.368;2023-07-02T03:36:35;94362.53;;;21.58;69.27
61292;BME280;47165;42.664;23.368;2023-07-02T03:39:00;94365.97;;;21.67;69.13
61292;BME280;47165;42.664;23.368;2023-07-02T03:41:27;94372.09;;;21.76;67.76
61292;BME280;47165;42.664;23.368;2023-07-02T03:43:53;94371.25;;;21.83;68.39
61292;BME280;47165;42.664;23.368;2023-07-02T03:46:18;94354.50;;;21.75;68.29
61292;BME280;47165;42.664;23.368;2023-07-02T03:48:44;94362.78;;;21.80;68.19
61292;BME280;47165;42.664;23.368;2023-07-02T03:51:10;94355.69;;;21.72;69.28
61292;BME280;47165;42.664;23.368;2023-07-02T03:53:37;94364.09;;;21.84;69.34
61292;BME280;47165;42.664;23.368;2023-07-02T03:56:03;94361.25;;;21.85;67.89
61292;BME280;47165;42.664;23.368;2023-07-02T03:58:29;94359.94;;;21.81;68.48
61292;BME280;47165;42.664;23.368;2023-07-02T04:00:54;94372.44;;;21.73;69.65
61292;BME280;47165;42.664;23.368;2023-07-02T04:03:20;94359.34;;;21.63;70.20
61292;BME280;47165;42.664;23.368;2023-07-02T04:05:45;94358.78;;;21.84;69.67
61292;BME280;47165;42.664;23.368;2023-07-02T04:08:10;94362.97;;;21.78;69.80
61292;BME280;47165;42.664;23.368;2023-07-02T04:10:36;94366.97;;;21.74;70.13
61292;BME280;47165;42.664;23.368;2023-07-02T04:13:02;94369.00;;;21.64;70.26
61292;BME280;47165;42.664;23.368;2023-07-02T04:15:28;94377.94;;;21.63;70.53
61292;BME280;47165;42.664;23.368;2023-07-02T04:17:53;94361.81;;;21.73;69.77
61292;BME280;47165;42.664;23.368;2023-07-02T04:20:20;94380.03;;;21.84;69.69
61292;BME280;47165;42.664;23.368;2023-07-02T04:22:46;94389.19;;;21.81;69.85
61292;BME280;47165;42.664;23.368;2023-07-02T04:25:12;94412.47;;;21.71;69.88
61292;BME280;47165;42.664;23.368;2023-07-02T04:27:44;94398.53;;;21.69;69.66
61292;BME280;47165;42.664;23.368;2023-07-02T04:30:12;94403.81;;;21.77;69.68
61292;BME280;47165;42.664;23.368;2023-07-02T04:32:39;94402.16;;;21.84;69.64
61292;BME280;47165;42.664;23.368;2023-07-02T04:35:06;94401.16;;;21.77;70.11
61292;BME280;47165;42.664;23.368;2023-07-02T04:37:31;94414.59;;;21.76;70.39
61292;BME280;47165;42.664;23.368;2023-07-02T04:39:56;94404.59;;;21.86;69.81
61292;BME280;47165;42.664;23.368;2023-07-02T04:42:22;94421.06;;;21.89;69.54
61292;BME280;47165;42.664;23.368;2023-07-02T04:44:55;94425.41;;;21.82;69.25
61292;BME280;47165;42.664;23.368;2023-07-02T04:47:20;94434.88;;;21.77;70.03
61292;BME280;47165;42.664;23.368;2023-07-02T04:49:46;94438.38;;;21.77;70.13
61292;BME280;47165;42.664;23.368;2023-07-02T04:52:11;94434.69;;;21.86;69.66
61292;BME280;47165;42.664;23.368;2023-07-02T04:54:37;94436.38;;;21.79;69.67
61292;BME280;47165;42.664;23.368;2023-07-02T04:57:03;94435.38;;;21.80;69.56
61292;BME280;47165;42.664;23.368;2023-07-02T04:59:28;94439.19;;;21.78;69.66
61292;BME280;47165;42.664;23.368;2023-07-02T05:01:54;94441.69;;;21.79;70.08
61292;BME280;47165;42.664;23.368;2023-07-02T05:04:19;94441.50;;;21.89;69.93
61292;BME280;47165;42.664;23.368;2023-07-02T05:06:44;94443.31;;;21.97;69.78
61292;BME280;47165;42.664;23.368;2023-07-02T05:09:10;94440.28;;;22.00;68.96
61292;BME280;47165;42.664;23.368;2023-07-02T05:11:35;94452.59;;;22.01;69.01
61292;BME280;47165;42.664;23.368;2023-07-02T05:14:01;94446.75;;;22.05;69.06
61292;BME280;47165;42.664;23.368;2023-07-02T05:16:26;94446.41;;;22.08;68.93
61292;BME280;47165;42.664;23.368;2023-07-02T05:18:52;94442.25;;;22.06;69.49
61292;BME280;47165;42.664;23.368;2023-07-02T05:21:18;94452.56;;;22.09;69.88
61292;BME280;47165;42.664;23.368;2023-07-02T05:23:43;94448.91;;;22.10;69.39
61292;BME280;47165;42.664;23.368;2023-07-02T05:26:09;94461.38;;;22.09;69.48
61292;BME280;47165;42.664;23.368;2023-07-02T05:28:34;94452.38;;;22.10;68.29
61292;BME280;47165;42.664;23.368;2023-07-02T05:31:00;94444.75;;;22.07;69.16
61292;BME280;47165;42.664;23.368;2023-07-02T05:33:25;94451.53;;;22.18;68.57
61292;BME280;47165;42.664;23.368;2023-07-02T05:35:51;94444.53;;;22.34;69.07
61292;BME280;47165;42.664;23.368;2023-07-02T05:38:18;94443.50;;;22.35;68.58
61292;BME280;47165;42.664;23.368;2023-07-02T05:40:44;94436.34;;;22.35;68.60
61292;BME280;47165;42.664;23.368;2023-07-02T05:43:09;94445.16;;;22.44;68.76
61292;BME280;47165;42.664;23.368;2023-07-02T05:45:35;94448.31;;;22.39;69.01
61292;BME280;47165;42.664;23.368;2023-07-02T05:48:00;94442.81;;;22.41;68.62
61292;BME280;47165;42.664;23.368;2023-07-02T05:50:26;94454.28;;;22.41;67.99
61292;BME280;47165;42.664;23.368;2023-07-02T05:52:51;94452.31;;;22.35;68.63
61292;BME280;47165;42.664;23.368;2023-07-02T05:55:17;94451.97;;;22.38;68.75
61292;BME280;47165;42.664;23.368;2023-07-02T05:57:42;94459.09;;;22.46;68.87
61292;BME280;47165;42.664;23.368;2023-07-02T06:00:08;94448.09;;;22.49;66.52
61292;BME280;47165;42.664;23.368;2023-07-02T06:02:33;94439.16;;;22.42;66.80
61292;BME280;47165;42.664;23.368;2023-07-02T06:04:59;94446.09;;;22.51;65.87
61292;BME280;47165;42.664;23.368;2023-07-02T06:07:24;94443.72;;;22.64;64.67
61292;BME280;47165;42.664;23.368;2023-07-02T06:09:50;94444.81;;;22.70;63.44
61292;BME280;47165;42.664;23.368;2023-07-02T06:12:16;94442.97;;;22.79;63.43
61292;BME280;47165;42.664;23.368;2023-07-02T06:14:41;94437.50;;;22.72;62.50
61292;BME280;47165;42.664;23.368;2023-07-02T06:17:07;94439.97;;;22.74;63.56
61292;BME280;47165;42.664;23.368;2023-07-02T06:19:33;94437.69;;;22.70;63.78
61292;BME280;47165;42.664;23.368;2023-07-02T06:21:59;94438.69;;;22.69;63.54
61292;BME280;47165;42.664;23.368;2023-07-02T06:24:25;94430.34;;;22.73;63.60
61292;BME280;47165;42.664;23.368;2023-07-02T06:26:50;94422.00;;;22.76;62.83
61292;BME280;47165;42.664;23.368;2023-07-02T06:29:16;94434.06;;;22.86;62.33
61292;BME280;47165;42.664;23.368;2023-07-02T06:31:41;94429.69;;;22.70;62.02
61292;BME280;47165;42.664;23.368;2023-07-02T06:34:07;94428.28;;;22.83;64.00
61292;BME280;47165;42.664;23.368;2023-07-02T06:36:34;94423.91;;;22.90;64.64
61292;BME280;47165;42.664;23.368;2023-07-02T06:38:59;94420.88;;;23.01;64.39
61292;BME280;47165;42.664;23.368;2023-07-02T06:41:24;94432.13;;;23.12;63.79
61292;BME280;47165;42.664;23.368;2023-07-02T06:43:50;94429.06;;;23.15;63.06
61292;BME280;47165;42.664;23.368;2023-07-02T06:46:15;94420.09;;;23.16;62.77
61292;BME280;47165;42.664;23.368;2023-07-02T06:48:41;94428.66;;;23.26;63.84
61292;BME280;47165;42.664;23.368;2023-07-02T06:51:06;94430.41;;;23.34;64.55
61292;BME280;47165;42.664;23.368;2023-07-02T06:53:33;94428.06;;;23.39;64.11
61292;BME280;47165;42.664;23.368;2023-07-02T06:55:58;94416.66;;;23.45;63.82
61292;BME280;47165;42.664;23.368;2023-07-02T06:58:24;94421.53;;;23.56;63.65
61292;BME280;47165;42.664;23.368;2023-07-02T07:00:49;94406.56;;;23.55;63.38
61292;BME280;47165;42.664;23.368;2023-07-02T07:03:15;94420.47;;;23.65;62.23
61292;BME280;47165;42.664;23.368;2023-07-02T07:05:41;94434.28;;;23.69;61.54
61292;BME280;47165;42.664;23.368;2023-07-02T07:08:06;94433.41;;;23.68;61.44
61292;BME280;47165;42.664;23.368;2023-07-02T07:10:32;94425.91;;;23.72;60.21
61292;BME280;47165;42.664;23.368;2023-07-02T07:13:02;94439.47;;;23.85;60.54
61292;BME280;47165;42.664;23.368;2023-07-02T07:15:33;94434.78;;;23.87;59.12
61292;BME280;47165;42.664;23.368;2023-07-02T07:17:59;94435.88;;;23.93;61.42
61292;BME280;47165;42.664;23.368;2023-07-02T07:20:25;94433.41;;;23.92;59.86
61292;BME280;47165;42.664;23.368;2023-07-02T07:22:50;94416.03;;;23.96;60.99
61292;BME280;47165;42.664;23.368;2023-07-02T07:25:16;94429.44;;;24.17;60.75
61292;BME280;47165;42.664;23.368;2023-07-02T07:27:41;94446.25;;;24.18;59.96
61292;BME280;47165;42.664;23.368;2023-07-02T07:30:07;94438.78;;;24.28;59.34
61292;BME280;47165;42.664;23.368;2023-07-02T07:32:32;94435.50;;;23.96;57.04
61292;BME280;47165;42.664;23.368;2023-07-02T07:34:58;94434.94;;;24.01;57.78
61292;BME280;47165;42.664;23.368;2023-07-02T07:37:24;94426.59;;;24.04;58.00
61292;BME280;47165;42.664;23.368;2023-07-02T07:39:50;94421.06;;;24.20;59.60
61292;BME280;47165;42.664;23.368;2023-07-02T07:42:16;94423.44;;;24.30;60.17
61292;BME280;47165;42.664;23.368;2023-07-02T07:44:45;94412.56;;;24.32;60.41
61292;BME280;47165;42.664;23.368;2023-07-02T07:47:11;94419.59;;;24.33;58.15
61292;BME280;47165;42.664;23.368;2023-07-02T07:49:36;94425.34;;;24.36;59.48
61292;BME280;47165;42.664;23.368;2023-07-02T07:52:02;94425.66;;;24.26;59.45
61292;BME280;47165;42.664;23.368;2023-07-02T07:54:28;94429.06;;;24.20;58.28
61292;BME280;47165;42.664;23.368;2023-07-02T07:56:54;94428.97;;;24.28;59.33
61292;BME280;47165;42.664;23.368;2023-07-02T07:59:20;94425.56;;;24.35;60.17
61292;BME280;47165;42.664;23.368;2023-07-02T08:01:45;94429.59;;;24.45;59.95
61292;BME280;47165;42.664;23.368;2023-07-02T08:04:12;94427.75;;;24.46;58.46
61292;BME280;47165;42.664;23.368;2023-07-02T08:06:37;94425.47;;;24.43;58.99
61292;BME280;47165;42.664;23.368;2023-07-02T08:09:03;94429.31;;;24.40;60.39
61292;BME280;47165;42.664;23.368;2023-07-02T08:11:28;94439.38;;;24.53;60.64
61292;BME280;47165;42.664;23.368;2023-07-02T08:13:54;94437.13;;;24.42;57.15
61292;BME280;47165;42.664;23.368;2023-07-02T08:16:20;94437.41;;;24.47;57.99
61292;BME280;47165;42.664;23.368;2023-07-02T08:18:45;94440.38;;;24.52;57.45
61292;BME280;47165;42.664;23.368;2023-07-02T08:21:10;94426.84;;;24.54;56.57
61292;BME280;47165;42.664;23.368;2023-07-02T08:23:36;94430.41;;;24.61;57.43
61292;BME280;47165;42.664;23.368;2023-07-02T08:26:02;94427.56;;;24.62;57.07
61292;BME280;47165;42.664;23.368;2023-07-02T08:28:28;94434.16;;;24.66;57.46
61292;BME280;47165;42.664;23.368;2023-07-02T08:30:54;94419.44;;;24.70;57.63
61292;BME280;47165;42.664;23.368;2023-07-02T08:33:20;94420.22;;;24.86;57.44
61292;BME280;47165;42.664;23.368;2023-07-02T08:35:46;94417.56;;;24.86;57.56
61292;BME280;47165;42.664;23.368;2023-07-02T08:38:11;94416.22;;;24.97;56.10
61292;BME280;47165;42.664;23.368;2023-07-02T08:40:37;94410.09;;;25.03;57.15
61292;BME280;47165;42.664;23.368;2023-07-02T08:43:02;94417.94;;;25.04;54.84
61292;BME280;47165;42.664;23.368;2023-07-02T08:45:28;94417.72;;;25.21;56.13
61292;BME280;47165;42.664;23.368;2023-07-02T08:47:55;94422.53;;;25.32;57.97
61292;BME280;47165;42.664;23.368;2023-07-02T08:50:23;94415.78;;;25.36;55.90
61292;BME280;47165;42.664;23.368;2023-07-02T08:52:49;94415.41;;;25.39;54.39
61292;BME280;47165;42.664;23.368;2023-07-02T08:55:15;94415.06;;;25.49;54.61
61292;BME280;47165;42.664;23.368;2023-07-02T08:57:48;94417.41;;;25.59;54.78
61292;BME280;47165;42.664;23.368;2023-07-02T09:00:15;94409.78;;;25.56;53.62
61292;BME280;47165;42.664;23.368;2023-07-02T09:02:40;94409.22;;;25.67;55.88
61292;BME280;47165;42.664;23.368;2023-07-02T09:05:06;94403.09;;;25.73;55.78
61292;BME280;47165;42.664;23.368;2023-07-02T09:07:32;94408.78;;;25.63;52.30
61292;BME280;47165;42.664;23.368;2023-07-02T09:09:57;94409.06;;;25.75;54.22
61292;BME280;47165;42.664;23.368;2023-07-02T09:12:26;94409.34;;;25.80;53.21
61292;BME280;47165;42.664;23.368;2023-07-02T09:14:59;94408.28;;;25.81;53.29
61292;BME280;47165;42.664;23.368;2023-07-02T09:17:29;94406.66;;;25.80;53.64
61292;BME280;47165;42.664;23.368;2023-07-02T09:19:55;94408.94;;;25.83;52.61
61292;BME280;47165;42.664;23.368;2023-07-02T09:22:20;94408.44;;;25.95;52.23
61292;BME280;47165;42.664;23.368;2023-07-02T09:24:56;94392.00;;;26.04;52.92
61292;BME280;47165;42.664;23.368;2023-07-02T09:27:35;94399.50;;;26.22;53.77
61292;BME280;47165;42.664;23.368;2023-07-02T09:30:09;94396.28;;;26.34;53.11
61292;BME280;47165;42.664;23.368;2023-07-02T09:32:35;94399.84;;;26.54;54.25
61292;BME280;47165;42.664;23.368;2023-07-02T09:35:01;94400.16;;;26.79;53.21
61292;BME280;47165;42.664;23.368;2023-07-02T09:37:27;94392.78;;;27.01;51.93
61292;BME280;47165;42.664;23.368;2023-07-02T09:39:54;94399.41;;;27.12;50.76
61292;BME280;47165;42.664;23.368;2023-07-02T09:42:21;94389.72;;;27.18;51.73
61292;BME280;47165;42.664;23.368;2023-07-02T09:44:47;94397.97;;;27.29;51.69
61292;BME280;47165;42.664;23.368;2023-07-02T09:47:17;94396.97;;;27.44;51.12
61292;BME280;47165;42.664;23.368;2023-07-02T09:52:45;94396.16;;;27.57;50.59
61292;BME280;47165;42.664;23.368;2023-07-02T09:55:11;94391.19;;;27.67;50.40
61292;BME280;47165;42.664;23.368;2023-07-02T09:57:38;94388.75;;;26.09;55.20
61292;BME280;47165;42.664;23.368;2023-07-02T10:00:05;94384.06;;;26.73;53.65
61292;BME280;47165;42.664;23.368;2023-07-02T10:02:32;94377.56;;;27.55;52.95
61292;BME280;47165;42.664;23.368;2023-07-02T10:04:58;94381.06;;;27.69;49.27
61292;BME280;47165;42.664;23.368;2023-07-02T10:07:31;94372.59;;;27.72;51.14
61292;BME280;47165;42.664;23.368;2023-07-02T10:09:57;94393.88;;;27.67;56.89
61292;BME280;47165;42.664;23.368;2023-07-02T10:12:25;94390.75;;;27.97;49.08
61292;BME280;47165;42.664;23.368;2023-07-02T10:14:52;94375.00;;;28.20;49.67
61292;BME280;47165;42.664;23.368;2023-07-02T10:17:28;94373.72;;;28.29;49.09
61292;BME280;47165;42.664;23.368;2023-07-02T10:19:55;94368.09;;;28.38;51.90
61292;BME280;47165;42.664;23.368;2023-07-02T10:22:22;94367.66;;;28.54;51.39
61292;BME280;47165;42.664;23.368;2023-07-02T10:24:58;94363.28;;;28.60;50.53
61292;BME280;47165;42.664;23.368;2023-07-02T10:27:40;94363.34;;;28.53;50.94
61292;BME280;47165;42.664;23.368;2023-07-02T10:30:07;94352.16;;;28.56;49.55
61292;BME280;47165;42.664;23.368;2023-07-02T10:32:34;94347.56;;;28.63;50.54
61292;BME280;47165;42.664;23.368;2023-07-02T10:35:21;94347.34;;;28.65;50.14
61292;BME280;47165;42.664;23.368;2023-07-02T10:37:46;94339.75;;;28.55;47.42
61292;BME280;47165;42.664;23.368;2023-07-02T10:40:12;94343.78;;;28.71;47.09
61292;BME280;47165;42.664;23.368;2023-07-02T10:42:48;94347.06;;;28.80;47.82
61292;BME280;47165;42.664;23.368;2023-07-02T10:45:14;94348.28;;;28.77;47.27
61292;BME280;47165;42.664;23.368;2023-07-02T10:47:40;94351.34;;;28.87;47.92
61292;BME280;47165;42.664;23.368;2023-07-02T10:50:20;94343.34;;;29.06;45.97
61292;BME280;47165;42.664;23.368;2023-07-02T10:52:46;94342.91;;;29.16;47.64
61292;BME280;47165;42.664;23.368;2023-07-02T10:55:23;94319.84;;;29.26;46.13
61292;BME280;47165;42.664;23.368;2023-07-02T10:57:50;94317.72;;;29.35;47.50
61292;BME280;47165;42.664;23.368;2023-07-02T11:00:18;94332.34;;;29.64;44.83
61292;BME280;47165;42.664;23.368;2023-07-02T11:02:44;94336.09;;;29.88;46.96
61292;BME280;47165;42.664;23.368;2023-07-02T11:05:10;94327.03;;;30.01;46.38
61292;BME280;47165;42.664;23.368;2023-07-02T11:07:41;94320.59;;;28.77;46.79
61292;BME280;47165;42.664;23.368;2023-07-02T11:10:07;94320.44;;;29.03;44.95
61292;BME280;47165;42.664;23.368;2023-07-02T11:12:34;94316.03;;;29.84;42.77
61292;BME280;47165;42.664;23.368;2023-07-02T11:15:10;94312.75;;;30.19;44.46
61292;BME280;47165;42.664;23.368;2023-07-02T11:17:36;94313.41;;;29.96;41.52
61292;BME280;47165;42.664;23.368;2023-07-02T11:20:01;94316.56;;;30.12;41.86
61292;BME280;47165;42.664;23.368;2023-07-02T11:22:33;94319.25;;;30.30;41.95
61292;BME280;47165;42.664;23.368;2023-07-02T11:25:28;94324.50;;;29.63;42.15
61292;BME280;47165;42.664;23.368;2023-07-02T11:28:05;94314.91;;;28.92;44.25
61292;BME280;47165;42.664;23.368;2023-07-02T11:30:30;94320.88;;;29.00;46.34
61292;BME280;47165;42.664;23.368;2023-07-02T11:32:56;94310.88;;;29.39;39.52
61292;BME280;47165;42.664;23.368;2023-07-02T11:35:22;94307.28;;;29.20;40.07
61292;BME280;47165;42.664;23.368;2023-07-02T11:37:58;94317.06;;;29.15;39.55
61292;BME280;47165;42.664;23.368;2023-07-02T11:40:24;94320.53;;;29.22;40.33
61292;BME280;47165;42.664;23.368;2023-07-02T11:42:49;94343.16;;;28.31;41.20
61292;BME280;47165;42.664;23.368;2023-07-02T11:45:15;94335.72;;;27.27;44.21
61292;BME280;47165;42.664;23.368;2023-07-02T11:47:40;94344.09;;;26.78;45.23
61292;BME280;47165;42.664;23.368;2023-07-02T11:50:07;94333.84;;;26.26;47.61
61292;BME280;47165;42.664;23.368;2023-07-02T11:52:32;94330.25;;;25.99;47.93
61292;BME280;47165;42.664;23.368;2023-07-02T11:54:58;94326.34;;;26.70;46.93
61292;BME280;47165;42.664;23.368;2023-07-02T11:57:23;94333.63;;;26.96;45.94
61292;BME280;47165;42.664;23.368;2023-07-02T11:59:50;94338.78;;;27.04;44.86
61292;BME280;47165;42.664;23.368;2023-07-02T12:02:17;94327.63;;;26.94;45.26
61292;BME280;47165;42.664;23.368;2023-07-02T12:04:43;94338.59;;;27.33;45.28
61292;BME280;47165;42.664;23.368;2023-07-02T12:07:09;94352.81;;;27.73;44.79
61292;BME280;47165;42.664;23.368;2023-07-02T12:09:35;94343.47;;;28.02;43.81
61292;BME280;47165;42.664;23.368;2023-07-02T12:12:01;94347.88;;;27.43;41.97
61292;BME280;47165;42.664;23.368;2023-07-02T12:14:26;94344.78;;;27.53;42.26
61292;BME280;47165;42.664;23.368;2023-07-02T12:16:52;94350.69;;;28.02;41.24
61292;BME280;47165;42.664;23.368;2023-07-02T12:19:17;94353.59;;;27.80;39.27
61292;BME280;47165;42.664;23.368;2023-07-02T12:21:43;94351.53;;;27.89;39.83
61292;BME280;47165;42.664;23.368;2023-07-02T12:24:08;94348.19;;;28.07;39.95
61292;BME280;47165;42.664;23.368;2023-07-02T12:26:39;94365.78;;;27.89;40.20
61292;BME280;47165;42.664;23.368;2023-07-02T12:29:04;94354.44;;;27.87;40.13
61292;BME280;47165;42.664;23.368;2023-07-02T12:31:30;94361.31;;;27.30;41.50
61292;BME280;47165;42.664;23.368;2023-07-02T12:33:56;94366.81;;;26.95;43.43
61292;BME280;47165;42.664;23.368;2023-07-02T12:36:21;94358.94;;;26.74;44.70
61292;BME280;47165;42.664;23.368;2023-07-02T12:38:47;94363.09;;;26.83;45.70
61292;BME280;47165;42.664;23.368;2023-07-02T12:41:12;94363.91;;;26.83;47.70
61292;BME280;47165;42.664;23.368;2023-07-02T12:43:38;94358.53;;;26.90;48.57
61292;BME280;47165;42.664;23.368;2023-07-02T12:46:03;94355.28;;;27.15;47.62
61292;BME280;47165;42.664;23.368;2023-07-02T12:48:29;94360.63;;;27.15;48.50
61292;BME280;47165;42.664;23.368;2023-07-02T12:50:58;94361.50;;;27.35;49.07
61292;BME280;47165;42.664;23.368;2023-07-02T12:53:25;94366.00;;;27.81;49.27
61292;BME280;47165;42.664;23.368;2023-07-02T12:55:51;94365.69;;;28.23;50.87
61292;BME280;47165;42.664;23.368;2023-07-02T12:58:17;94341.00;;;28.46;47.18
61292;BME280;47165;42.664;23.368;2023-07-02T13:00:42;94356.50;;;28.51;46.33
61292;BME280;47165;42.664;23.368;2023-07-02T13:03:10;94361.50;;;28.34;47.73
61292;BME280;47165;42.664;23.368;2023-07-02T13:05:36;94358.75;;;28.02;48.20
61292;BME280;47165;42.664;23.368;2023-07-02T13:08:02;94362.94;;;28.36;49.00
61292;BME280;47165;42.664;23.368;2023-07-02T13:10:29;94360.84;;;28.45;46.88
61292;BME280;47165;42.664;23.368;2023-07-02T13:12:55;94351.19;;;28.82;47.02